LLBG/TLV METAR and TAF weather

Enter ICAO airport designator
Station Type Date Time Source
LLBG METAR 2021/07/26 17:20 UTC NOAA

LLBG 261720Z 34008KT 9999 SCT023 29/23 Q1009 NOSIG


Station Type Date Time Source
LLBG Decoded METAR 2021/07/26 17:20 UTC NOAA

Ben-Gurion International Airport, Israel (LLBG) 32-00N 034-54E 49M
Jul 26, 2021 - 01:20 PM EDT / 2021.07.26 1720 UTC
Wind: from the NNW (340 degrees) at 9 MPH (8 KT):0
Visibility: greater than 7 mile(s):0
Sky conditions: partly cloudy
Temperature: 84 F (29 C)
Dew Point: 73 F (23 C)
Relative Humidity: 70%
Pressure (altimeter): 29.80 in. Hg (1009 hPa)
ob: LLBG 261720Z 34008KT 9999 SCT023 29/23 Q1009 NOSIG
cycle: 17

Station Type Date Time Source
LLBG TAF 2021/07/26 18:15 UTC NOAA

TAF TAF LLBG 261712Z 2618/2718 33006KT 9999 SCT025
BECMG 2619/2621 VRB04KT PROB40
TEMPO 2621/2707 17006KT BKN020
BECMG 2707/2709 30012KT FEW030
BECMG 2715/2717 33006KT SCT025 TX33/2711Z TN26/2703Z

Example: see airport list